createdAt,value
2018-09-12T00:00:38.911Z,5.30
2018-09-12T00:05:48.903Z,8.13
2018-09-12T00:10:58.920Z,4.70
2018-09-12T00:16:08.943Z,6.67
2018-09-12T00:21:19.007Z,4.63
2018-09-12T00:26:29.111Z,6.80
2018-09-12T00:31:39.331Z,6.80
2018-09-12T00:36:49.320Z,4.63
2018-09-12T00:41:59.183Z,4.37
2018-09-12T00:47:09.135Z,5.33
2018-09-12T00:52:19.237Z,5.57
2018-09-12T00:57:29.164Z,4.87
2018-09-12T01:02:39.240Z,7.30
2018-09-12T01:07:49.155Z,4.47
2018-09-12T01:12:59.237Z,4.37
2018-09-12T01:18:13.365Z,6.20
2018-09-12T01:23:23.399Z,8.00
2018-09-12T01:28:33.255Z,8.13
2018-09-12T01:33:43.290Z,7.17
2018-09-12T01:38:53.229Z,7.93
2018-09-12T01:44:03.075Z,5.93
2018-09-12T01:49:17.472Z,6.83
2018-09-12T01:54:27.352Z,9.57
2018-09-12T01:59:37.385Z,7.63
2018-09-12T02:04:47.300Z,9.53
2018-09-12T02:09:57.248Z,8.60
2018-09-12T02:15:07.506Z,9.80
2018-09-12T02:20:17.416Z,7.70
2018-09-12T02:25:27.310Z,9.77
2018-09-12T02:30:37.301Z,8.93
2018-09-12T02:35:52.547Z,9.47
2018-09-12T02:41:02.703Z,8.20
2018-09-12T02:46:12.695Z,11.50
2018-09-12T02:51:22.740Z,7.47
2018-09-12T02:56:32.744Z,7.33
2018-09-12T03:01:42.816Z,6.97
2018-09-12T03:06:52.760Z,7.13
2018-09-12T03:12:02.708Z,9.80
2018-09-12T03:17:13.554Z,10.37
2018-09-12T03:22:23.564Z,7.83
2018-09-12T03:27:33.603Z,7.10
2018-09-12T03:32:43.690Z,10.43
2018-09-12T03:37:53.695Z,7.73
2018-09-12T03:43:03.669Z,5.00
2018-09-12T03:48:13.627Z,11.27
2018-09-12T03:53:23.647Z,12.27
2018-09-12T03:58:33.665Z,6.13
2018-09-12T04:03:43.624Z,10.73
2018-09-12T04:08:53.508Z,7.20
2018-09-12T04:14:03.583Z,7.17
2018-09-12T04:19:13.680Z,6.60
2018-09-12T04:24:23.779Z,8.23
2018-09-12T04:29:33.665Z,9.50
2018-09-12T04:34:43.675Z,6.53
2018-09-12T04:39:53.726Z,5.30
2018-09-12T04:45:03.787Z,6.73
2018-09-12T04:50:13.684Z,10.03
2018-09-12T04:55:23.608Z,6.27
2018-09-12T05:00:33.620Z,10.80
2018-09-12T05:05:43.681Z,8.73
2018-09-12T05:10:53.619Z,9.83
2018-09-12T05:16:03.747Z,8.53
2018-09-12T05:21:13.747Z,12.73
2018-09-12T05:26:23.742Z,9.67
2018-09-12T05:31:33.820Z,12.47
2018-09-12T05:36:43.668Z,12.23
2018-09-12T05:41:53.708Z,10.93
2018-09-12T05:47:03.744Z,5.33
2018-09-12T05:52:13.648Z,8.17
2018-09-12T05:57:23.612Z,7.97
2018-09-12T06:02:33.644Z,7.77
2018-09-12T06:07:43.632Z,10.23
2018-09-12T06:12:53.649Z,15.97
2018-09-12T06:18:04.380Z,12.87
2018-09-12T06:23:14.437Z,13.00
2018-09-12T06:28:24.459Z,11.67
2018-09-12T06:33:34.411Z,7.97
2018-09-12T06:38:44.364Z,13.60
2018-09-12T06:43:54.227Z,6.73
2018-09-12T06:49:04.479Z,9.43
2018-09-12T06:54:14.343Z,7.60
2018-09-12T06:59:24.331Z,9.93
2018-09-12T07:04:34.287Z,8.50
2018-09-12T07:09:44.319Z,9.13
2018-09-12T07:14:54.401Z,12.20
2018-09-12T07:20:04.380Z,9.87
2018-09-12T07:25:14.463Z,8.53
2018-09-12T07:30:24.515Z,10.17
2018-09-12T07:35:34.763Z,9.37
2018-09-12T07:40:44.921Z,12.83
2018-09-12T07:45:54.771Z,14.03
2018-09-12T07:51:04.823Z,17.63
2018-09-12T07:56:15.017Z,14.43
2018-09-12T08:01:25.248Z,14.50
2018-09-12T08:06:35.356Z,16.23
2018-09-12T08:11:45.429Z,19.47
2018-09-12T08:16:55.315Z,16.57
2018-09-12T08:22:05.158Z,13.70
2018-09-12T08:27:15.176Z,14.90
2018-09-12T08:32:25.232Z,11.00
2018-09-12T08:37:35.224Z,9.60
2018-09-12T08:42:45.652Z,12.37
2018-09-12T08:47:55.780Z,15.80
2018-09-12T08:53:05.899Z,10.53
2018-09-12T08:58:15.759Z,19.87
2018-09-12T09:03:26.500Z,15.73
2018-09-12T09:08:36.546Z,16.93
2018-09-12T09:13:46.631Z,13.73
2018-09-12T09:18:56.698Z,13.83
2018-09-12T09:24:06.893Z,12.53
2018-09-12T09:29:16.802Z,16.90
2018-09-12T09:34:26.807Z,11.80
2018-09-12T09:39:36.663Z,14.07
2018-09-12T09:44:46.773Z,13.83
2018-09-12T09:49:57.537Z,11.57
2018-09-12T09:55:07.659Z,10.03
2018-09-12T10:00:23.025Z,10.03
2018-09-12T10:05:38.368Z,12.00
2018-09-12T10:10:48.387Z,10.07
2018-09-12T10:15:58.265Z,9.93
2018-09-12T10:21:08.249Z,7.43
2018-09-12T10:26:18.238Z,7.53
2018-09-12T10:31:28.251Z,9.43
2018-09-12T10:36:38.412Z,6.40
2018-09-12T10:41:48.468Z,9.20
2018-09-12T10:46:58.332Z,8.77
2018-09-12T10:52:08.351Z,10.60
2018-09-12T10:57:18.420Z,10.23
2018-09-12T11:02:28.426Z,16.60
2018-09-12T11:07:38.411Z,8.93
2018-09-12T11:12:48.411Z,11.70
2018-09-12T11:17:58.421Z,10.90
2018-09-12T11:23:08.307Z,13.30
2018-09-12T11:28:18.204Z,10.90
2018-09-12T11:33:28.252Z,7.57
2018-09-12T11:38:38.804Z,8.87
2018-09-12T11:43:48.983Z,9.93
2018-09-12T11:48:59.025Z,15.07
2018-09-12T11:54:09.008Z,18.43
2018-09-12T11:59:19.032Z,10.93
2018-09-12T12:04:29.015Z,12.33
2018-09-12T12:09:39.087Z,8.10
2018-09-12T12:14:49.030Z,7.40
2018-09-12T12:19:59.052Z,9.93
2018-09-12T12:25:08.973Z,8.67
2018-09-12T12:30:18.908Z,7.50
2018-09-12T12:35:29.013Z,8.23
2018-09-12T12:40:38.966Z,7.50
2018-09-12T12:45:49.011Z,9.03
2018-09-12T12:50:59.094Z,9.67
2018-09-12T12:56:09.027Z,8.03
2018-09-12T13:01:19.028Z,6.50
2018-09-12T13:06:29.075Z,10.07
2018-09-12T13:11:39.012Z,10.30
2018-09-12T13:16:49.049Z,8.47
2018-09-12T13:21:59.060Z,8.47
2018-09-12T13:27:09.094Z,6.40
2018-09-12T13:32:18.967Z,9.73
2018-09-12T13:37:28.944Z,7.13
2018-09-12T13:42:38.824Z,5.57
2018-09-12T13:47:48.915Z,6.33
2018-09-12T13:52:58.959Z,4.60
2018-09-12T13:58:09.055Z,3.60
2018-09-12T14:03:19.122Z,4.40
2018-09-12T14:08:29.207Z,3.20
2018-09-12T14:13:39.304Z,3.80
2018-09-12T14:18:49.308Z,3.10
2018-09-12T14:23:59.416Z,3.30
2018-09-12T14:29:09.300Z,2.43
2018-09-12T14:34:19.179Z,4.00
2018-09-12T14:39:29.334Z,2.07
2018-09-12T14:44:39.048Z,1.20
2018-09-12T14:49:49.074Z,1.67
2018-09-12T14:54:59.131Z,1.67
2018-09-12T15:00:09.036Z,1.93
2018-09-12T15:05:19.072Z,3.20
2018-09-12T15:10:29.074Z,1.40
2018-09-12T15:15:39.129Z,1.73
2018-09-12T15:20:49.012Z,3.30
2018-09-12T15:25:59.107Z,1.70
2018-09-12T15:31:09.064Z,1.83
2018-09-12T15:36:19.152Z,2.80
2018-09-12T15:41:29.311Z,2.93
2018-09-12T15:46:39.144Z,3.43
2018-09-12T15:51:49.192Z,2.60
2018-09-12T15:56:59.382Z,3.57
2018-09-12T16:02:09.408Z,2.17
2018-09-12T16:07:19.366Z,3.47
2018-09-12T16:12:29.241Z,3.77
2018-09-12T16:17:39.352Z,2.03
2018-09-12T16:22:49.295Z,2.90
2018-09-12T16:27:59.192Z,2.07
2018-09-12T16:33:09.250Z,2.70
2018-09-12T16:38:19.157Z,3.50
2018-09-12T16:43:29.079Z,2.93
2018-09-12T16:48:38.947Z,2.53
2018-09-12T16:53:48.995Z,2.93
2018-09-12T16:58:59.010Z,2.33
2018-09-12T17:04:08.924Z,1.77
2018-09-12T17:09:18.967Z,2.63
2018-09-12T17:14:28.930Z,2.20
2018-09-12T17:19:38.823Z,3.70
2018-09-12T17:24:48.903Z,3.20
2018-09-12T17:29:58.809Z,4.70
2018-09-12T17:35:08.763Z,4.23
2018-09-12T17:40:18.872Z,4.63
2018-09-12T17:45:28.975Z,3.50
2018-09-12T17:50:38.999Z,3.37
2018-09-12T17:55:49.048Z,3.37
2018-09-12T18:00:58.965Z,2.63
2018-09-12T18:06:09.033Z,3.30
2018-09-12T18:11:19.089Z,1.90
2018-09-12T18:16:28.985Z,4.30
2018-09-12T18:21:39.128Z,3.57
2018-09-12T18:26:49.194Z,3.93
2018-09-12T18:31:59.148Z,2.17
2018-09-12T18:37:09.116Z,3.83
2018-09-12T18:42:19.767Z,4.30
2018-09-12T18:47:29.897Z,3.97
2018-09-12T18:52:39.961Z,4.33
2018-09-12T18:57:49.976Z,3.03
2018-09-12T19:03:00.541Z,2.43
2018-09-12T19:08:10.879Z,2.43
2018-09-12T19:13:20.922Z,2.97
2018-09-12T19:18:31.030Z,2.13
2018-09-12T19:23:41.016Z,5.67
2018-09-12T19:28:51.064Z,2.77
2018-09-12T19:34:01.080Z,3.60
2018-09-12T19:39:11.337Z,2.00
2018-09-12T19:44:21.375Z,3.50
2018-09-12T19:49:31.371Z,1.60
2018-09-12T19:54:41.452Z,3.47
2018-09-12T19:59:51.521Z,3.70
2018-09-12T20:05:01.712Z,3.47
2018-09-12T20:10:11.791Z,1.77
2018-09-12T20:15:22.182Z,2.33
2018-09-12T20:20:32.240Z,2.73
2018-09-12T20:25:42.525Z,1.53
2018-09-12T20:30:52.497Z,4.73
2018-09-12T20:36:02.611Z,2.30
2018-09-12T20:41:12.544Z,2.83
2018-09-12T20:46:22.691Z,2.03
2018-09-12T20:51:32.735Z,2.90
2018-09-12T20:56:43.279Z,1.93
2018-09-12T21:01:53.304Z,5.03
2018-09-12T21:07:03.679Z,3.17
2018-09-12T21:12:13.540Z,2.00
2018-09-12T21:17:25.344Z,3.83
2018-09-12T21:22:35.212Z,2.87
2018-09-12T21:27:45.423Z,3.30
2018-09-12T21:32:55.315Z,4.37
2018-09-12T21:38:05.300Z,3.90
2018-09-12T21:43:15.296Z,2.53
2018-09-12T21:48:25.312Z,2.63
2018-09-12T21:53:35.197Z,2.97
2018-09-12T21:58:45.220Z,4.67
2018-09-12T22:03:55.343Z,3.40
2018-09-12T22:09:08.458Z,3.13
2018-09-12T22:14:18.307Z,2.07
2018-09-12T22:19:28.375Z,5.40
2018-09-12T22:24:38.255Z,1.70
2018-09-12T22:29:48.112Z,2.50
2018-09-12T22:34:58.303Z,2.47
2018-09-12T22:40:08.400Z,2.97
2018-09-12T22:45:18.272Z,2.20
2018-09-12T22:50:28.183Z,4.03
2018-09-12T22:55:38.528Z,3.37
2018-09-12T23:00:48.524Z,3.60
2018-09-12T23:05:58.550Z,2.63
2018-09-12T23:11:08.508Z,2.33
2018-09-12T23:16:18.537Z,1.67
2018-09-12T23:21:28.396Z,2.10
2018-09-12T23:26:38.377Z,4.60
2018-09-12T23:31:48.428Z,4.57
2018-09-12T23:36:58.456Z,4.13
2018-09-12T23:42:08.302Z,3.63
2018-09-12T23:47:18.332Z,2.33
2018-09-12T23:52:28.368Z,3.73
2018-09-12T23:57:38.371Z,7.13
